Abbyville, KS

12:21 AM CDT on September 03, 2014 (GMT -0500)
Wichita Mid-Continent | Change Station
CLOSE
Current Station
Airport
Location: Wichita,
Elevation: 1332 ft
Nearby Weather Stations

Elev 1332 ft 37.65 °N, 97.43 °W | Updated 28 minutes ago

Mostly Cloudy
Mostly Cloudy
76 °F
Feels Like 76 °F
N
15
Wind Variable Wind from SE

Today
High -- | Low -- °F
--% Chance of Precip.
Yesterday
High -- | Low -- °F
Precip. -- in
7:04 AM 7:59 PM
First Quarter, 58% visible
Pressure 29.88 in
Visibility 10.0 miles
Clouds Few 5000 ft
Mostly Cloudy 8000 ft
Mostly Cloudy 12000 ft
Dew Point 68 °F
Humidity 76%
Rainfall 0.00 in
Snow Depth Not available.
UV 0 out of 12
Pollen 10.30 out of 12
Air Quality Not available.
Flu Activity Not available.
METAR KICT 030453Z 14013KT 10SM FEW050 BKN080 BKN120 24/20 A2993 RMK AO2 SLP118 FRQ LTGICCC DSNT NW-NE CB DSNT NW-NE MOV NE T02440200

More Conditions Fewer Conditions

Pressure 29.88 in
Visibility 10.0 miles
Clouds Few 5000 ft
Mostly Cloudy 8000 ft
Mostly Cloudy 12000 ft
Dew Point 68 °F
Humidity 76%
Rainfall 0.00 in
Snow Depth Not available.
UV 0 out of 12
Pollen 10.30 out of 12
Air Quality Not available.
Flu Activity Not available.
METAR KICT 030453Z 14013KT 10SM FEW050 BKN080 BKN120 24/20 A2993 RMK AO2 SLP118 FRQ LTGICCC DSNT NW-NE CB DSNT NW-NE MOV NE T02440200

More Conditions Fewer Conditions

10-Day Weather Forecast

Almanac

Astronomy

Sep. 03, 2014 Rise Set
Actual Time 7:04 AM CDT 7:59 PM CDT
Civil Twilight 6:37 AM CDT 8:26 PM CDT
Nautical Twilight 6:05 AM CDT 8:57 PM CDT
Astronomical Twilight 5:32 AM CDT 9:30 PM CDT
Moon 3:39 PM CDT 1:02 AM CDT
Length of Visible Light 13h 48m
Length of Day
12h 54m
Tomorrow will be 2m 22s shorter.
First Quarter, 58% of the Moon is Illuminated
Today
First Quarter
Sep 8
Full
Sep 15
Last Quarter
Sep 24
New
Oct 1
First Quarter

Today's Extremes

State Highs State Lows

Community

WunderPhotos

Upload Photos

1,749,877 photos uploaded!

Nearby

Snow Depth

Station Depth Elevation
No new snow has been reported.

Earthquake Activity

City Distance Mag. Time & Date
Helena, Oklahoma 105 miles 3.2 3:05 AM CDT
2014-09-02
Medford, Oklahoma 90 miles 3.3 11:58 PM CDT
2014-09-01
Perry, Oklahoma 133 miles 3.1 6:46 AM CDT
2014-09-01
Enid, Oklahoma 97 miles 3.4 11:57 AM CDT
2014-08-31
Minimum magnitude displayed is 2.5.

Coastal Water Temperatures

Place Temperature
No Stations Reporting

Nearby Weather Stations